createdAt,value
2018-06-11T00:02:12.557Z,45.20
2018-06-11T00:04:47.093Z,43.87
2018-06-11T00:07:21.569Z,46.50
2018-06-11T00:09:56.219Z,46.27
2018-06-11T00:12:30.708Z,43.07
2018-06-11T00:15:05.108Z,41.50
2018-06-11T00:17:39.492Z,46.27
2018-06-11T00:20:14.288Z,41.43
2018-06-11T00:22:48.913Z,42.80
2018-06-11T00:25:23.481Z,42.80
2018-06-11T00:27:58.023Z,42.93
2018-06-11T00:30:32.652Z,44.23
2018-06-11T00:33:07.067Z,46.03
2018-06-11T00:35:41.740Z,41.50
2018-06-11T00:38:16.396Z,43.60
2018-06-11T00:40:50.789Z,43.73
2018-06-11T00:43:25.205Z,41.90
2018-06-11T00:45:59.663Z,45.97
2018-06-11T00:48:34.098Z,42.20
2018-06-11T00:51:08.888Z,42.63
2018-06-11T00:53:43.381Z,40.20
2018-06-11T00:56:17.760Z,43.63
2018-06-11T00:58:52.501Z,44.97
2018-06-11T01:01:26.900Z,39.83
2018-06-11T01:04:01.531Z,38.63
2018-06-11T01:06:35.952Z,42.03
2018-06-11T01:09:10.875Z,38.00
2018-06-11T01:11:45.708Z,39.87
2018-06-11T01:14:20.056Z,40.27
2018-06-11T01:16:54.561Z,41.03
2018-06-11T01:19:29.149Z,39.50
2018-06-11T01:22:03.509Z,37.23
2018-06-11T01:24:37.929Z,34.63
2018-06-11T01:27:12.831Z,39.40
2018-06-11T01:29:47.625Z,39.67
2018-06-11T01:32:22.177Z,40.87
2018-06-11T01:34:56.569Z,38.87
2018-06-11T01:37:31.221Z,42.77
2018-06-11T01:40:05.849Z,39.33
2018-06-11T01:42:40.409Z,40.87
2018-06-11T01:45:14.999Z,42.40
2018-06-11T01:47:49.617Z,42.53
2018-06-11T01:50:26.298Z,45.13
2018-06-11T01:53:00.948Z,45.20
2018-06-11T01:55:35.844Z,44.20
2018-06-11T01:58:10.373Z,46.13
2018-06-11T02:00:44.852Z,48.20
2018-06-11T02:03:19.332Z,49.97
2018-06-11T02:05:53.684Z,48.70
2018-06-11T02:08:28.300Z,50.80
2018-06-11T02:11:02.746Z,48.70
2018-06-11T02:13:37.240Z,49.30
2018-06-11T02:16:11.602Z,51.13
2018-06-11T02:18:46.088Z,51.27
2018-06-11T02:21:20.542Z,56.07
2018-06-11T02:23:55.180Z,54.00
2018-06-11T02:26:29.969Z,54.77
2018-06-11T02:29:04.466Z,53.13
2018-06-11T02:31:39.038Z,62.63
2018-06-11T02:34:13.429Z,61.43
2018-06-11T02:36:47.876Z,57.00
2018-06-11T02:39:22.233Z,58.30
2018-06-11T02:41:56.625Z,57.83
2018-06-11T02:44:31.033Z,61.77
2018-06-11T02:47:05.636Z,63.63
2018-06-11T02:49:40.136Z,53.60
2018-06-11T02:52:14.801Z,60.13
2018-06-11T02:54:49.188Z,58.73
2018-06-11T02:57:23.535Z,55.97
2018-06-11T02:59:57.951Z,62.17
2018-06-11T03:02:32.408Z,62.20
2018-06-11T03:05:06.897Z,62.57
2018-06-11T03:07:41.228Z,62.77
2018-06-11T03:10:15.857Z,61.20
2018-06-11T03:12:50.767Z,60.57
2018-06-11T03:15:25.421Z,55.50
2018-06-11T03:17:59.847Z,63.03
2018-06-11T03:20:34.237Z,63.07
2018-06-11T03:23:08.928Z,64.33
2018-06-11T03:25:43.500Z,67.93
2018-06-11T03:28:18.025Z,68.07
2018-06-11T03:30:53.378Z,61.97
2018-06-11T03:33:27.973Z,61.13
2018-06-11T03:36:02.493Z,64.50
2018-06-11T03:38:36.956Z,65.47
2018-06-11T03:41:11.312Z,62.00
2018-06-11T03:43:45.839Z,64.77
2018-06-11T03:46:20.665Z,62.33
2018-06-11T03:48:55.556Z,64.33
2018-06-11T03:51:30.124Z,59.50
2018-06-11T03:54:04.569Z,64.87
2018-06-11T03:56:39.269Z,68.40
2018-06-11T03:59:13.676Z,64.33
2018-06-11T04:01:48.509Z,67.07
2018-06-11T04:04:23.353Z,64.87
2018-06-11T04:06:57.849Z,64.77
2018-06-11T04:09:32.860Z,62.53
2018-06-11T04:12:07.350Z,61.43
2018-06-11T04:14:41.821Z,62.73
2018-06-11T04:17:16.545Z,66.37
2018-06-11T04:19:51.192Z,60.90
2018-06-11T04:22:26.035Z,59.00
2018-06-11T04:25:00.695Z,56.73
2018-06-11T04:27:35.394Z,59.10
2018-06-11T04:30:10.517Z,58.07
2018-06-11T04:32:45.295Z,65.63
2018-06-11T04:35:19.884Z,60.03
2018-06-11T04:37:54.357Z,56.10
2018-06-11T04:40:29.422Z,58.90
2018-06-11T04:43:04.608Z,55.93
2018-06-11T04:45:39.414Z,58.67
2018-06-11T04:48:13.901Z,56.60
2018-06-11T04:50:48.430Z,56.43
2018-06-11T04:53:22.825Z,58.47
2018-06-11T04:55:57.325Z,53.77
2018-06-11T04:58:31.665Z,52.27
2018-06-11T05:01:06.356Z,53.33
2018-06-11T05:03:40.825Z,52.47
2018-06-11T05:06:15.702Z,50.83
2018-06-11T05:08:50.161Z,55.53
2018-06-11T05:11:24.502Z,48.63
2018-06-11T05:13:58.879Z,47.63
2018-06-11T05:16:33.312Z,49.30
2018-06-11T05:19:07.813Z,49.97
2018-06-11T05:21:42.372Z,48.87
2018-06-11T05:24:16.701Z,49.10
2018-06-11T05:26:51.380Z,50.47
2018-06-11T05:29:25.935Z,49.97
2018-06-11T05:32:00.459Z,43.03
2018-06-11T05:34:34.908Z,46.00
2018-06-11T05:37:09.125Z,43.73
2018-06-11T05:39:43.440Z,45.13
2018-06-11T05:42:17.680Z,37.80
2018-06-11T05:44:52.100Z,40.67
2018-06-11T05:47:26.459Z,39.90
2018-06-11T05:50:00.747Z,38.03
2018-06-11T05:52:35.160Z,38.20
2018-06-11T05:55:09.492Z,40.10
2018-06-11T05:57:44.073Z,35.17
2018-06-11T06:00:18.547Z,36.67
2018-06-11T06:02:52.951Z,33.87
2018-06-11T06:05:27.289Z,35.67
2018-06-11T06:08:01.603Z,36.90
2018-06-11T06:10:35.831Z,40.00
2018-06-11T06:13:10.445Z,38.87
2018-06-11T06:15:44.816Z,37.20
2018-06-11T06:18:19.168Z,37.80
2018-06-11T06:20:53.444Z,44.40
2018-06-11T06:23:27.832Z,39.20
2018-06-11T06:26:02.244Z,41.80
2018-06-11T06:28:36.491Z,38.80
2018-06-11T06:31:10.720Z,40.80
2018-06-11T06:33:45.348Z,34.43
2018-06-11T06:36:19.804Z,39.73
2018-06-11T06:38:54.176Z,39.87
2018-06-11T06:41:28.584Z,38.03
2018-06-11T06:44:03.056Z,32.00
2018-06-11T06:46:37.443Z,30.47
2018-06-11T06:49:11.827Z,32.70
2018-06-11T06:51:46.168Z,29.70
2018-06-11T06:54:20.772Z,28.73
2018-06-11T06:56:55.100Z,34.90
2018-06-11T06:59:29.466Z,26.20
2018-06-11T07:02:03.909Z,30.63
2018-06-11T07:04:38.232Z,29.57
2018-06-11T07:07:12.944Z,29.07
2018-06-11T07:09:47.261Z,30.57
2018-06-11T07:12:21.615Z,29.73
2018-06-11T07:14:56.064Z,27.20
2018-06-11T07:17:30.445Z,25.63
2018-06-11T07:20:05.016Z,24.90
2018-06-11T07:22:39.420Z,28.00
2018-06-11T07:25:13.681Z,26.67
2018-06-11T07:27:48.043Z,30.17
2018-06-11T07:30:22.292Z,27.27
2018-06-11T07:32:56.580Z,30.70
2018-06-11T07:35:31.203Z,27.43
2018-06-11T07:38:05.923Z,28.10
2018-06-11T07:40:40.244Z,24.40
2018-06-11T07:43:14.736Z,25.57
2018-06-11T07:45:49.181Z,26.23
2018-06-11T07:48:23.580Z,21.53
2018-06-11T07:50:58.000Z,23.97
2018-06-11T07:53:32.415Z,22.00
2018-06-11T07:56:07.139Z,27.23
2018-06-11T07:58:41.439Z,22.50
2018-06-11T08:01:15.829Z,20.37
2018-06-11T08:03:50.147Z,19.77
2018-06-11T08:06:24.668Z,20.67
2018-06-11T08:08:59.040Z,22.63
2018-06-11T08:11:33.423Z,22.37
2018-06-11T08:14:07.839Z,23.17
2018-06-11T08:16:42.204Z,23.03
2018-06-11T08:19:16.619Z,23.60
2018-06-11T08:21:51.117Z,23.93
2018-06-11T08:24:25.522Z,21.90
2018-06-11T08:26:59.767Z,25.20
2018-06-11T08:29:34.455Z,22.20
2018-06-11T08:32:08.692Z,24.17
2018-06-11T08:34:43.076Z,21.43
2018-06-11T08:37:17.556Z,23.10
2018-06-11T08:39:51.959Z,25.37
2018-06-11T08:42:26.671Z,20.27
2018-06-11T08:45:01.108Z,22.50
2018-06-11T08:47:35.524Z,22.37
2018-06-11T08:50:11.831Z,22.13
2018-06-11T08:52:46.170Z,21.70
2018-06-11T08:55:20.596Z,21.00
2018-06-11T08:57:55.048Z,22.60
2018-06-11T09:00:29.425Z,21.33
2018-06-11T09:03:04.083Z,19.47
2018-06-11T09:05:38.315Z,24.73
2018-06-11T09:08:13.018Z,21.30
2018-06-11T09:10:47.712Z,23.80
2018-06-11T09:13:21.959Z,19.67
2018-06-11T09:15:56.364Z,22.40
2018-06-11T09:18:30.793Z,23.07
2018-06-11T09:21:05.116Z,20.00
2018-06-11T09:23:39.492Z,20.17
2018-06-11T09:26:14.077Z,20.23
2018-06-11T09:28:48.587Z,24.80
2018-06-11T09:31:22.783Z,22.43
2018-06-11T09:33:57.192Z,22.10
2018-06-11T09:36:32.063Z,18.33
2018-06-11T09:39:08.093Z,21.63
2018-06-11T09:41:42.315Z,21.53
2018-06-11T09:44:16.676Z,19.30
2018-06-11T09:46:51.119Z,19.40
2018-06-11T09:49:25.474Z,20.90
2018-06-11T09:51:59.839Z,19.77
2018-06-11T09:54:34.247Z,24.27
2018-06-11T09:57:08.611Z,18.53
2018-06-11T09:59:42.987Z,19.20
2018-06-11T10:02:17.504Z,16.57
2018-06-11T10:04:52.307Z,15.40
2018-06-11T10:07:26.603Z,20.13
2018-06-11T10:10:01.056Z,16.47
2018-06-11T10:12:35.344Z,15.13
2018-06-11T10:15:09.788Z,17.53
2018-06-11T10:17:44.231Z,15.23
2018-06-11T10:20:18.759Z,15.77
2018-06-11T10:22:52.951Z,18.07
2018-06-11T10:25:27.327Z,16.07
2018-06-11T10:28:01.972Z,15.00
2018-06-11T10:30:36.352Z,18.43
2018-06-11T10:33:10.676Z,16.33
2018-06-11T10:35:45.328Z,14.73
2018-06-11T10:38:19.604Z,15.47
2018-06-11T10:40:53.927Z,15.53
2018-06-11T10:43:28.616Z,14.53
2018-06-11T10:46:02.888Z,14.87
2018-06-11T10:48:37.127Z,14.23
2018-06-11T10:51:11.804Z,16.33
2018-06-11T10:53:46.079Z,15.50
2018-06-11T10:56:20.427Z,18.20
2018-06-11T10:58:55.044Z,15.53
2018-06-11T11:01:29.321Z,14.03
2018-06-11T11:04:03.828Z,14.90
2018-06-11T11:06:38.142Z,17.43
2018-06-11T11:09:12.454Z,15.93
2018-06-11T11:11:46.850Z,14.57
2018-06-11T11:14:21.352Z,15.97
2018-06-11T11:16:55.536Z,15.97
2018-06-11T11:19:29.868Z,19.40
2018-06-11T11:22:04.284Z,15.77
2018-06-11T11:24:38.664Z,21.03
2018-06-11T11:27:13.109Z,15.10
2018-06-11T11:29:47.471Z,16.77
2018-06-11T11:32:22.245Z,15.43
2018-06-11T11:34:56.743Z,15.87
2018-06-11T11:37:31.004Z,16.93
2018-06-11T11:40:05.429Z,16.00
2018-06-11T11:42:39.836Z,15.87
2018-06-11T11:45:14.236Z,14.13
2018-06-11T11:47:48.680Z,21.17
2018-06-11T11:50:23.233Z,14.90
2018-06-11T11:52:57.586Z,14.53
2018-06-11T11:55:32.193Z,12.40
2018-06-11T11:58:06.685Z,18.07
2018-06-11T12:00:41.617Z,17.63
2018-06-11T12:03:16.048Z,17.20
2018-06-11T12:05:50.488Z,18.37
2018-06-11T12:08:24.912Z,17.10
2018-06-11T12:10:59.453Z,15.43
2018-06-11T12:13:34.085Z,16.17
2018-06-11T12:16:08.987Z,14.93
2018-06-11T12:18:43.624Z,16.70
2018-06-11T12:21:18.011Z,19.53
2018-06-11T12:23:52.368Z,19.53
2018-06-11T12:26:26.801Z,15.60
2018-06-11T12:29:01.366Z,15.37
2018-06-11T12:31:35.897Z,17.33
2018-06-11T12:34:10.344Z,20.67
2018-06-11T12:36:44.742Z,21.23
2018-06-11T12:39:19.241Z,21.83
2018-06-11T12:41:53.641Z,19.33
2018-06-11T12:44:27.948Z,21.67
2018-06-11T12:47:02.366Z,22.30
2018-06-11T12:49:37.037Z,25.70
2018-06-11T12:52:11.521Z,25.13
2018-06-11T12:54:46.084Z,21.07
2018-06-11T12:57:20.756Z,20.77
2018-06-11T12:59:55.522Z,22.60
2018-06-11T13:02:30.261Z,19.27
2018-06-11T13:05:05.248Z,18.47
2018-06-11T13:07:39.798Z,18.43
2018-06-11T13:10:14.320Z,21.00
2018-06-11T13:12:48.880Z,18.27
2018-06-11T13:15:23.766Z,15.67
2018-06-11T13:17:58.299Z,15.53
2018-06-11T13:20:33.256Z,18.80
2018-06-11T13:23:07.739Z,16.13
2018-06-11T13:25:42.357Z,18.50
2018-06-11T13:28:16.873Z,17.13
2018-06-11T13:30:51.257Z,18.20
2018-06-11T13:33:25.844Z,15.77
2018-06-11T13:36:00.674Z,14.30
2018-06-11T13:38:35.240Z,14.50
2018-06-11T13:41:10.136Z,13.57
2018-06-11T13:43:44.500Z,14.57
2018-06-11T13:46:19.120Z,11.60
2018-06-11T13:48:53.677Z,10.87
2018-06-11T13:51:28.153Z,10.50
2018-06-11T13:54:02.688Z,13.03
2018-06-11T13:56:37.205Z,15.33
2018-06-11T13:59:11.785Z,13.53
2018-06-11T14:01:46.300Z,11.53
2018-06-11T14:04:20.689Z,11.63
2018-06-11T14:06:55.305Z,9.67
2018-06-11T14:09:29.782Z,10.90
2018-06-11T14:12:04.242Z,9.50
2018-06-11T14:14:38.802Z,10.47
2018-06-11T14:17:13.155Z,9.10
2018-06-11T14:19:47.539Z,10.97
2018-06-11T14:22:21.913Z,9.47
2018-06-11T14:24:56.342Z,9.83
2018-06-11T14:27:30.857Z,8.97
2018-06-11T14:30:05.308Z,11.90
2018-06-11T14:32:39.761Z,8.73
2018-06-11T14:35:14.204Z,10.67
2018-06-11T14:37:48.876Z,10.07
2018-06-11T14:40:23.757Z,8.93
2018-06-11T14:42:58.208Z,11.30
2018-06-11T14:45:32.598Z,10.80
2018-06-11T14:48:07.157Z,11.20
2018-06-11T14:50:41.504Z,9.13
2018-06-11T14:53:15.873Z,6.43
2018-06-11T14:55:50.628Z,7.87
2018-06-11T14:58:25.269Z,7.73
2018-06-11T15:00:59.744Z,7.10
2018-06-11T15:03:34.163Z,7.60
2018-06-11T15:06:08.589Z,9.60
2018-06-11T15:08:43.127Z,7.83
2018-06-11T15:11:17.844Z,11.17
2018-06-11T15:13:52.592Z,9.20
2018-06-11T15:16:27.170Z,8.50
2018-06-11T15:19:01.725Z,7.30
2018-06-11T15:21:36.260Z,7.83
2018-06-11T15:24:10.650Z,7.97
2018-06-11T15:26:45.166Z,7.57
2018-06-11T15:29:19.538Z,9.90
2018-06-11T15:31:54.077Z,6.37
2018-06-11T15:34:28.758Z,7.10
2018-06-11T15:37:03.360Z,6.93
2018-06-11T15:39:37.858Z,9.20
2018-06-11T15:42:12.253Z,8.87
2018-06-11T15:44:46.780Z,5.77
2018-06-11T15:47:21.461Z,5.97
2018-06-11T15:49:56.264Z,5.60
2018-06-11T15:52:31.076Z,6.87
2018-06-11T15:55:05.495Z,4.83
2018-06-11T15:57:40.060Z,5.00
2018-06-11T16:00:14.705Z,6.77
2018-06-11T16:02:49.184Z,4.90
2018-06-11T16:05:23.612Z,6.43
2018-06-11T16:07:57.992Z,6.60
2018-06-11T16:10:32.488Z,7.00
2018-06-11T16:13:06.781Z,9.50
2018-06-11T16:15:41.339Z,6.77
2018-06-11T16:18:16.053Z,5.43
2018-06-11T16:20:50.485Z,5.07
2018-06-11T16:23:24.977Z,7.00
2018-06-11T16:25:59.412Z,6.93
2018-06-11T16:28:33.797Z,7.53
2018-06-11T16:31:08.159Z,6.23
2018-06-11T16:33:42.404Z,7.47
2018-06-11T16:36:16.741Z,7.53
2018-06-11T16:38:51.064Z,9.07
2018-06-11T16:41:25.946Z,8.73
2018-06-11T16:44:00.392Z,5.93
2018-06-11T16:46:34.860Z,6.93
2018-06-11T16:49:09.274Z,7.50
2018-06-11T16:51:43.738Z,7.10
2018-06-11T16:54:18.220Z,7.83
2018-06-11T16:56:52.557Z,7.77
2018-06-11T16:59:27.244Z,6.87
2018-06-11T17:02:01.881Z,5.97
2018-06-11T17:04:36.400Z,6.03
2018-06-11T17:07:11.157Z,7.00
2018-06-11T17:09:45.621Z,7.27
2018-06-11T17:12:19.969Z,6.67
2018-06-11T17:14:54.332Z,6.23
2018-06-11T17:17:28.916Z,9.57
2018-06-11T17:20:03.776Z,5.90
2018-06-11T17:22:38.148Z,10.57
2018-06-11T17:25:12.548Z,7.57
2018-06-11T17:27:47.001Z,6.70
2018-06-11T17:30:21.288Z,6.10
2018-06-11T17:32:55.813Z,7.53
2018-06-11T17:35:30.543Z,8.17
2018-06-11T17:38:05.295Z,9.20
2018-06-11T17:40:39.564Z,8.40
2018-06-11T17:43:13.949Z,10.27
2018-06-11T17:45:48.550Z,7.77
2018-06-11T17:48:23.023Z,7.57
2018-06-11T17:50:57.516Z,7.60
2018-06-11T17:53:32.313Z,6.73
2018-06-11T17:56:06.785Z,8.27
2018-06-11T17:58:41.326Z,9.07
2018-06-11T18:01:15.731Z,8.63
2018-06-11T18:03:50.250Z,7.57
2018-06-11T18:06:24.801Z,11.63
2018-06-11T18:08:59.304Z,9.13
2018-06-11T18:11:33.656Z,8.77
2018-06-11T18:14:08.259Z,8.40
2018-06-11T18:16:42.670Z,7.87
2018-06-11T18:19:17.202Z,9.90
2018-06-11T18:21:51.837Z,9.60
2018-06-11T18:24:26.400Z,9.30
2018-06-11T18:27:01.001Z,7.93
2018-06-11T18:29:35.577Z,7.57
2018-06-11T18:32:09.965Z,7.80
2018-06-11T18:34:44.488Z,8.77
2018-06-11T18:37:18.890Z,9.43
2018-06-11T18:39:53.353Z,9.53
2018-06-11T18:42:27.838Z,8.80
2018-06-11T18:45:02.303Z,8.40
2018-06-11T18:47:36.836Z,7.87
2018-06-11T18:50:11.257Z,9.40
2018-06-11T18:52:45.957Z,9.63
2018-06-11T18:55:20.581Z,7.10
2018-06-11T18:57:55.276Z,8.57
2018-06-11T19:00:29.928Z,9.67
2018-06-11T19:03:04.568Z,11.87
2018-06-11T19:05:39.128Z,8.93
2018-06-11T19:08:13.645Z,10.83
2018-06-11T19:10:48.266Z,11.47
2018-06-11T19:13:22.628Z,9.03
2018-06-11T19:15:57.316Z,9.67
2018-06-11T19:18:31.688Z,7.30
2018-06-11T19:21:06.210Z,9.03
2018-06-11T19:23:40.673Z,10.77
2018-06-11T19:26:15.182Z,9.33
2018-06-11T19:28:49.720Z,10.70
2018-06-11T19:31:24.277Z,10.07
2018-06-11T19:33:58.829Z,8.77
2018-06-11T19:36:33.297Z,7.50
2018-06-11T19:39:07.857Z,9.57
2018-06-11T19:41:42.293Z,7.43
2018-06-11T19:44:16.596Z,10.20
2018-06-11T19:46:50.991Z,10.90
2018-06-11T19:49:25.494Z,9.23
2018-06-11T19:51:59.932Z,14.80
2018-06-11T19:54:34.298Z,7.67
2018-06-11T19:57:08.737Z,7.60
2018-06-11T19:59:43.152Z,7.47
2018-06-11T20:02:17.977Z,9.67
2018-06-11T20:04:52.568Z,7.73
2018-06-11T20:07:26.964Z,9.77
2018-06-11T20:10:01.519Z,13.30
2018-06-11T20:12:35.918Z,8.00
2018-06-11T20:15:10.340Z,10.93
2018-06-11T20:17:44.796Z,10.87
2018-06-11T20:20:19.147Z,9.93
2018-06-11T20:22:53.665Z,8.03
2018-06-11T20:25:27.989Z,11.37
2018-06-11T20:28:02.559Z,8.50
2018-06-11T20:30:37.547Z,8.83
2018-06-11T20:33:12.090Z,11.03
2018-06-11T20:35:46.509Z,11.53
2018-06-11T20:38:21.021Z,9.43
2018-06-11T20:40:55.781Z,11.80
2018-06-11T20:43:30.399Z,12.90
2018-06-11T20:46:04.905Z,9.30
2018-06-11T20:48:39.449Z,9.87
2018-06-11T20:51:13.972Z,12.50
2018-06-11T20:53:48.381Z,10.90
2018-06-11T20:56:22.855Z,12.60
2018-06-11T20:58:57.317Z,14.13
2018-06-11T21:01:31.933Z,13.73
2018-06-11T21:04:06.638Z,10.43
2018-06-11T21:06:41.076Z,10.00
2018-06-11T21:09:15.675Z,11.70
2018-06-11T21:11:50.285Z,15.50
2018-06-11T21:14:25.064Z,14.07
2018-06-11T21:16:59.934Z,13.27
2018-06-11T21:19:34.488Z,13.17
2018-06-11T21:22:08.949Z,13.23
2018-06-11T21:24:43.432Z,10.93
2018-06-11T21:27:17.872Z,11.57
2018-06-11T21:29:52.224Z,12.73
2018-06-11T21:32:26.644Z,11.40
2018-06-11T21:35:01.360Z,13.87
2018-06-11T21:37:35.957Z,11.27
2018-06-11T21:40:10.494Z,11.50
2018-06-11T21:42:45.001Z,13.50
2018-06-11T21:45:19.657Z,10.07
2018-06-11T21:47:54.118Z,10.57
2018-06-11T21:50:28.848Z,8.43
2018-06-11T21:53:03.309Z,9.73
2018-06-11T21:55:37.729Z,14.07
2018-06-11T21:58:12.402Z,11.53
2018-06-11T22:00:47.005Z,13.63
2018-06-11T22:03:21.931Z,10.30
2018-06-11T22:05:56.509Z,10.57
2018-06-11T22:08:31.233Z,9.67
2018-06-11T22:11:05.713Z,9.53
2018-06-11T22:13:40.296Z,9.47
2018-06-11T22:16:14.936Z,14.53
2018-06-11T22:18:49.597Z,9.30
2018-06-11T22:21:24.161Z,10.60
2018-06-11T22:23:59.465Z,9.87
2018-06-11T22:26:33.777Z,10.13
2018-06-11T22:29:08.288Z,8.97
2018-06-11T22:31:42.767Z,9.90
2018-06-11T22:34:17.296Z,10.37
2018-06-11T22:36:51.714Z,9.80
2018-06-11T22:39:26.301Z,8.37
2018-06-11T22:42:00.730Z,11.03
2018-06-11T22:44:35.226Z,9.90
2018-06-11T22:47:09.784Z,8.27
2018-06-11T22:49:44.321Z,11.00
2018-06-11T22:52:18.755Z,9.97
2018-06-11T22:54:53.341Z,9.63
2018-06-11T22:57:27.974Z,10.03
2018-06-11T23:00:02.406Z,10.77
2018-06-11T23:02:37.115Z,12.83
2018-06-11T23:05:11.654Z,11.80
2018-06-11T23:07:46.284Z,12.93
2018-06-11T23:10:20.823Z,10.90
2018-06-11T23:12:55.256Z,12.13
2018-06-11T23:15:29.841Z,10.47
2018-06-11T23:18:04.202Z,13.83
2018-06-11T23:20:38.776Z,12.80
2018-06-11T23:23:13.180Z,10.07
2018-06-11T23:25:47.572Z,13.37
2018-06-11T23:28:22.445Z,13.83
2018-06-11T23:30:57.095Z,13.30
2018-06-11T23:33:31.581Z,11.53
2018-06-11T23:36:06.081Z,14.23
2018-06-11T23:38:40.404Z,11.73
2018-06-11T23:41:14.776Z,12.87
2018-06-11T23:43:49.207Z,12.23
2018-06-11T23:46:23.636Z,12.67
2018-06-11T23:48:58.040Z,12.60
2018-06-11T23:51:32.472Z,13.23
2018-06-11T23:54:06.900Z,10.93
2018-06-11T23:56:41.304Z,14.97
2018-06-11T23:59:15.832Z,11.60
